sensor_id;sensor_type;location;lat;lon;timestamp;P1;durP1;ratioP1;P2;durP2;ratioP2
61785;SDS011;47692;53.714;11.372;2023-02-01T00:01:47;15.75;;;2.70;;
61785;SDS011;47692;53.714;11.372;2023-02-01T00:04:13;15.73;;;2.15;;
61785;SDS011;47692;53.714;11.372;2023-02-01T00:06:38;21.25;;;3.33;;
61785;SDS011;47692;53.714;11.372;2023-02-01T00:09:04;17.52;;;2.67;;
61785;SDS011;47692;53.714;11.372;2023-02-01T00:11:29;11.98;;;1.92;;
61785;SDS011;47692;53.714;11.372;2023-02-01T00:13:54;18.27;;;2.63;;
61785;SDS011;47692;53.714;11.372;2023-02-01T00:16:24;19.58;;;3.05;;
61785;SDS011;47692;53.714;11.372;2023-02-01T00:18:55;12.52;;;2.80;;
61785;SDS011;47692;53.714;11.372;2023-02-01T00:21:25;17.35;;;2.85;;
61785;SDS011;47692;53.714;11.372;2023-02-01T00:23:51;24.63;;;2.55;;
61785;SDS011;47692;53.714;11.372;2023-02-01T00:26:18;17.27;;;2.70;;
61785;SDS011;47692;53.714;11.372;2023-02-01T00:28:45;17.90;;;3.60;;
61785;SDS011;47692;53.714;11.372;2023-02-01T00:31:10;27.48;;;3.08;;
61785;SDS011;47692;53.714;11.372;2023-02-01T00:33:36;15.23;;;2.58;;
61785;SDS011;47692;53.714;11.372;2023-02-01T00:36:03;19.98;;;2.65;;
61785;SDS011;47692;53.714;11.372;2023-02-01T00:38:30;14.75;;;1.98;;
61785;SDS011;47692;53.714;11.372;2023-02-01T00:41:03;15.98;;;2.05;;
61785;SDS011;47692;53.714;11.372;2023-02-01T00:45:55;12.25;;;2.17;;
61785;SDS011;47692;53.714;11.372;2023-02-01T00:48:21;17.48;;;2.80;;
61785;SDS011;47692;53.714;11.372;2023-02-01T00:50:46;17.42;;;2.67;;
61785;SDS011;47692;53.714;11.372;2023-02-01T00:53:11;19.98;;;2.42;;
61785;SDS011;47692;53.714;11.372;2023-02-01T00:55:37;16.33;;;2.42;;
61785;SDS011;47692;53.714;11.372;2023-02-01T00:58:02;14.85;;;2.05;;
61785;SDS011;47692;53.714;11.372;2023-02-01T01:00:31;17.05;;;3.08;;
61785;SDS011;47692;53.714;11.372;2023-02-01T01:02:59;17.38;;;3.13;;
61785;SDS011;47692;53.714;11.372;2023-02-01T01:05:24;14.35;;;2.67;;
61785;SDS011;47692;53.714;11.372;2023-02-01T01:07:49;14.82;;;2.63;;
61785;SDS011;47692;53.714;11.372;2023-02-01T01:10:15;16.77;;;2.75;;
61785;SDS011;47692;53.714;11.372;2023-02-01T01:12:41;11.77;;;2.47;;
61785;SDS011;47692;53.714;11.372;2023-02-01T01:15:06;14.82;;;2.22;;
61785;SDS011;47692;53.714;11.372;2023-02-01T01:17:33;16.00;;;4.47;;
61785;SDS011;47692;53.714;11.372;2023-02-01T01:19:59;16.88;;;2.15;;
61785;SDS011;47692;53.714;11.372;2023-02-01T01:22:24;18.15;;;2.35;;
61785;SDS011;47692;53.714;11.372;2023-02-01T01:24:50;17.98;;;2.53;;
61785;SDS011;47692;53.714;11.372;2023-02-01T01:27:15;16.08;;;3.40;;
61785;SDS011;47692;53.714;11.372;2023-02-01T01:29:40;23.75;;;2.70;;
61785;SDS011;47692;53.714;11.372;2023-02-01T01:32:06;19.02;;;2.47;;
61785;SDS011;47692;53.714;11.372;2023-02-01T01:34:31;12.82;;;1.92;;
61785;SDS011;47692;53.714;11.372;2023-02-01T01:36:56;17.25;;;2.50;;
61785;SDS011;47692;53.714;11.372;2023-02-01T01:39:22;16.90;;;3.90;;
61785;SDS011;47692;53.714;11.372;2023-02-01T01:41:47;16.77;;;2.03;;
61785;SDS011;47692;53.714;11.372;2023-02-01T01:47:15;20.73;;;2.05;;
61785;SDS011;47692;53.714;11.372;2023-02-01T01:49:41;13.30;;;2.88;;
61785;SDS011;47692;53.714;11.372;2023-02-01T01:52:07;19.05;;;2.72;;
61785;SDS011;47692;53.714;11.372;2023-02-01T01:54:37;14.65;;;2.03;;
61785;SDS011;47692;53.714;11.372;2023-02-01T01:57:08;22.77;;;3.20;;
61785;SDS011;47692;53.714;11.372;2023-02-01T01:59:37;16.80;;;3.20;;
61785;SDS011;47692;53.714;11.372;2023-02-01T02:02:05;20.33;;;3.47;;
61785;SDS011;47692;53.714;11.372;2023-02-01T02:04:31;13.90;;;2.92;;
61785;SDS011;47692;53.714;11.372;2023-02-01T02:07:02;19.08;;;2.92;;
61785;SDS011;47692;53.714;11.372;2023-02-01T02:09:30;14.98;;;2.75;;
61785;SDS011;47692;53.714;11.372;2023-02-01T02:11:55;20.05;;;2.97;;
61785;SDS011;47692;53.714;11.372;2023-02-01T02:14:21;19.38;;;3.35;;
61785;SDS011;47692;53.714;11.372;2023-02-01T02:25:11;21.52;;;3.30;;
61785;SDS011;47692;53.714;11.372;2023-02-01T02:33:36;16.70;;;3.13;;
61785;SDS011;47692;53.714;11.372;2023-02-01T02:36:10;23.63;;;3.13;;
61785;SDS011;47692;53.714;11.372;2023-02-01T02:41:40;17.65;;;2.50;;
61785;SDS011;47692;53.714;11.372;2023-02-01T02:47:33;18.25;;;2.35;;
61785;SDS011;47692;53.714;11.372;2023-02-01T02:50:26;17.15;;;2.70;;
61785;SDS011;47692;53.714;11.372;2023-02-01T02:53:27;11.95;;;3.53;;
61785;SDS011;47692;53.714;11.372;2023-02-01T02:56:16;18.02;;;2.50;;
61785;SDS011;47692;53.714;11.372;2023-02-01T02:59:03;22.60;;;2.58;;
61785;SDS011;47692;53.714;11.372;2023-02-01T03:01:50;21.33;;;2.53;;
61785;SDS011;47692;53.714;11.372;2023-02-01T03:04:35;20.25;;;2.83;;
61785;SDS011;47692;53.714;11.372;2023-02-01T03:07:13;21.95;;;2.83;;
61785;SDS011;47692;53.714;11.372;2023-02-01T03:09:41;24.45;;;2.75;;
61785;SDS011;47692;53.714;11.372;2023-02-01T03:12:12;13.77;;;2.28;;
61785;SDS011;47692;53.714;11.372;2023-02-01T03:15:00;18.13;;;2.75;;
61785;SDS011;47692;53.714;11.372;2023-02-01T03:17:34;19.15;;;3.30;;
61785;SDS011;47692;53.714;11.372;2023-02-01T03:22:31;20.23;;;3.05;;
61785;SDS011;47692;53.714;11.372;2023-02-01T03:25:06;18.02;;;2.72;;
61785;SDS011;47692;53.714;11.372;2023-02-01T03:27:37;18.25;;;3.72;;
61785;SDS011;47692;53.714;11.372;2023-02-01T03:32:34;16.52;;;2.80;;
61785;SDS011;47692;53.714;11.372;2023-02-01T03:35:21;22.95;;;2.97;;
61785;SDS011;47692;53.714;11.372;2023-02-01T03:40:57;17.45;;;3.47;;
61785;SDS011;47692;53.714;11.372;2023-02-01T03:43:43;22.98;;;2.88;;
61785;SDS011;47692;53.714;11.372;2023-02-01T03:46:20;17.48;;;2.70;;
61785;SDS011;47692;53.714;11.372;2023-02-01T03:48:50;23.77;;;3.03;;
61785;SDS011;47692;53.714;11.372;2023-02-01T03:51:19;13.90;;;2.83;;
61785;SDS011;47692;53.714;11.372;2023-02-01T03:53:47;17.05;;;2.63;;
61785;SDS011;47692;53.714;11.372;2023-02-01T03:56:15;24.23;;;3.10;;
61785;SDS011;47692;53.714;11.372;2023-02-01T03:58:43;19.60;;;3.30;;
61785;SDS011;47692;53.714;11.372;2023-02-01T04:01:22;25.25;;;3.75;;
61785;SDS011;47692;53.714;11.372;2023-02-01T04:03:48;26.25;;;3.53;;
61785;SDS011;47692;53.714;11.372;2023-02-01T04:06:13;25.38;;;3.50;;
61785;SDS011;47692;53.714;11.372;2023-02-01T04:08:38;18.92;;;3.08;;
61785;SDS011;47692;53.714;11.372;2023-02-01T04:11:03;21.20;;;3.20;;
61785;SDS011;47692;53.714;11.372;2023-02-01T04:13:29;16.23;;;3.65;;
61785;SDS011;47692;53.714;11.372;2023-02-01T04:15:54;14.82;;;1.98;;
61785;SDS011;47692;53.714;11.372;2023-02-01T04:18:19;16.85;;;2.00;;
61785;SDS011;47692;53.714;11.372;2023-02-01T04:20:44;13.32;;;1.77;;
61785;SDS011;47692;53.714;11.372;2023-02-01T04:23:10;11.18;;;1.95;;
61785;SDS011;47692;53.714;11.372;2023-02-01T04:25:35;13.95;;;2.00;;
61785;SDS011;47692;53.714;11.372;2023-02-01T04:28:00;10.60;;;2.55;;
61785;SDS011;47692;53.714;11.372;2023-02-01T04:30:26;14.57;;;1.95;;
61785;SDS011;47692;53.714;11.372;2023-02-01T04:32:51;9.40;;;1.58;;
61785;SDS011;47692;53.714;11.372;2023-02-01T04:35:16;5.35;;;1.10;;
61785;SDS011;47692;53.714;11.372;2023-02-01T04:37:42;11.20;;;1.60;;
61785;SDS011;47692;53.714;11.372;2023-02-01T04:40:08;9.52;;;1.85;;
61785;SDS011;47692;53.714;11.372;2023-02-01T04:42:34;10.07;;;1.58;;
61785;SDS011;47692;53.714;11.372;2023-02-01T04:44:59;5.43;;;1.38;;
61785;SDS011;47692;53.714;11.372;2023-02-01T04:47:24;7.47;;;1.92;;
61785;SDS011;47692;53.714;11.372;2023-02-01T04:49:50;9.38;;;1.80;;
61785;SDS011;47692;53.714;11.372;2023-02-01T04:52:15;9.43;;;1.48;;
61785;SDS011;47692;53.714;11.372;2023-02-01T04:54:40;9.48;;;1.30;;
61785;SDS011;47692;53.714;11.372;2023-02-01T04:57:05;5.07;;;1.15;;
61785;SDS011;47692;53.714;11.372;2023-02-01T04:59:31;4.57;;;1.17;;
61785;SDS011;47692;53.714;11.372;2023-02-01T05:01:56;5.40;;;0.90;;
61785;SDS011;47692;53.714;11.372;2023-02-01T05:04:21;3.35;;;0.57;;
61785;SDS011;47692;53.714;11.372;2023-02-01T05:06:47;2.88;;;0.70;;
61785;SDS011;47692;53.714;11.372;2023-02-01T05:09:12;1.60;;;0.60;;
61785;SDS011;47692;53.714;11.372;2023-02-01T05:11:37;3.67;;;0.88;;
61785;SDS011;47692;53.714;11.372;2023-02-01T05:14:22;3.08;;;0.60;;
61785;SDS011;47692;53.714;11.372;2023-02-01T05:16:47;1.98;;;0.50;;
61785;SDS011;47692;53.714;11.372;2023-02-01T05:19:12;3.00;;;0.60;;
61785;SDS011;47692;53.714;11.372;2023-02-01T05:21:38;2.13;;;0.77;;
61785;SDS011;47692;53.714;11.372;2023-02-01T05:24:03;1.35;;;0.52;;
61785;SDS011;47692;53.714;11.372;2023-02-01T05:26:35;1.38;;;0.43;;
61785;SDS011;47692;53.714;11.372;2023-02-01T05:29:05;4.50;;;0.70;;
61785;SDS011;47692;53.714;11.372;2023-02-01T05:31:30;3.00;;;0.60;;
61785;SDS011;47692;53.714;11.372;2023-02-01T05:33:56;3.70;;;0.70;;
61785;SDS011;47692;53.714;11.372;2023-02-01T05:36:21;5.63;;;0.80;;
61785;SDS011;47692;53.714;11.372;2023-02-01T05:38:46;6.32;;;1.10;;
61785;SDS011;47692;53.714;11.372;2023-02-01T05:41:12;2.35;;;0.70;;
61785;SDS011;47692;53.714;11.372;2023-02-01T05:43:37;3.90;;;1.00;;
61785;SDS011;47692;53.714;11.372;2023-02-01T05:46:02;6.38;;;1.38;;
61785;SDS011;47692;53.714;11.372;2023-02-01T05:48:28;6.63;;;1.38;;
61785;SDS011;47692;53.714;11.372;2023-02-01T05:50:53;4.03;;;0.82;;
61785;SDS011;47692;53.714;11.372;2023-02-01T05:53:18;3.63;;;0.82;;
61785;SDS011;47692;53.714;11.372;2023-02-01T05:55:44;4.78;;;0.63;;
61785;SDS011;47692;53.714;11.372;2023-02-01T05:58:09;2.88;;;1.25;;
61785;SDS011;47692;53.714;11.372;2023-02-01T06:00:34;6.55;;;0.88;;
61785;SDS011;47692;53.714;11.372;2023-02-01T06:03:00;3.10;;;0.98;;
61785;SDS011;47692;53.714;11.372;2023-02-01T06:05:25;6.20;;;0.85;;
61785;SDS011;47692;53.714;11.372;2023-02-01T06:07:50;4.47;;;0.93;;
61785;SDS011;47692;53.714;11.372;2023-02-01T06:10:16;1.88;;;0.77;;
61785;SDS011;47692;53.714;11.372;2023-02-01T06:12:42;3.95;;;0.65;;
61785;SDS011;47692;53.714;11.372;2023-02-01T06:15:09;5.05;;;1.05;;
61785;SDS011;47692;53.714;11.372;2023-02-01T06:17:35;1.95;;;0.70;;
61785;SDS011;47692;53.714;11.372;2023-02-01T06:20:00;4.35;;;1.00;;
61785;SDS011;47692;53.714;11.372;2023-02-01T06:22:26;2.97;;;0.70;;
61785;SDS011;47692;53.714;11.372;2023-02-01T06:24:51;2.33;;;0.95;;
61785;SDS011;47692;53.714;11.372;2023-02-01T06:27:16;2.67;;;0.70;;
61785;SDS011;47692;53.714;11.372;2023-02-01T06:29:41;2.97;;;0.60;;
61785;SDS011;47692;53.714;11.372;2023-02-01T06:32:07;3.83;;;0.60;;
61785;SDS011;47692;53.714;11.372;2023-02-01T06:34:32;4.25;;;0.65;;
61785;SDS011;47692;53.714;11.372;2023-02-01T06:36:57;3.47;;;0.52;;
61785;SDS011;47692;53.714;11.372;2023-02-01T06:39:23;4.72;;;0.85;;
61785;SDS011;47692;53.714;11.372;2023-02-01T06:41:48;2.95;;;0.80;;
61785;SDS011;47692;53.714;11.372;2023-02-01T06:44:14;2.30;;;0.60;;
61785;SDS011;47692;53.714;11.372;2023-02-01T06:46:40;2.78;;;0.75;;
61785;SDS011;47692;53.714;11.372;2023-02-01T06:49:06;2.80;;;0.85;;
61785;SDS011;47692;53.714;11.372;2023-02-01T06:51:31;3.45;;;0.70;;
61785;SDS011;47692;53.714;11.372;2023-02-01T06:53:57;4.32;;;0.70;;
61785;SDS011;47692;53.714;11.372;2023-02-01T06:56:23;8.13;;;1.80;;
61785;SDS011;47692;53.714;11.372;2023-02-01T06:58:48;0.80;;;0.50;;
61785;SDS011;47692;53.714;11.372;2023-02-01T07:01:14;3.20;;;0.55;;
61785;SDS011;47692;53.714;11.372;2023-02-01T07:03:40;2.67;;;0.80;;
61785;SDS011;47692;53.714;11.372;2023-02-01T07:06:05;2.95;;;0.90;;
61785;SDS011;47692;53.714;11.372;2023-02-01T07:08:32;4.65;;;0.80;;
61785;SDS011;47692;53.714;11.372;2023-02-01T07:11:06;3.25;;;0.65;;
61785;SDS011;47692;53.714;11.372;2023-02-01T07:13:33;7.82;;;1.65;;
61785;SDS011;47692;53.714;11.372;2023-02-01T07:16:00;2.83;;;0.93;;
61785;SDS011;47692;53.714;11.372;2023-02-01T07:18:27;4.97;;;0.90;;
61785;SDS011;47692;53.714;11.372;2023-02-01T07:20:53;3.25;;;1.23;;
61785;SDS011;47692;53.714;11.372;2023-02-01T07:23:19;2.90;;;0.57;;
61785;SDS011;47692;53.714;11.372;2023-02-01T07:25:45;4.88;;;1.20;;
61785;SDS011;47692;53.714;11.372;2023-02-01T07:28:10;7.13;;;1.30;;
61785;SDS011;47692;53.714;11.372;2023-02-01T07:30:36;4.55;;;0.85;;
61785;SDS011;47692;53.714;11.372;2023-02-01T07:33:01;5.20;;;0.90;;
61785;SDS011;47692;53.714;11.372;2023-02-01T07:35:27;3.17;;;0.70;;
61785;SDS011;47692;53.714;11.372;2023-02-01T07:37:53;4.60;;;1.00;;
61785;SDS011;47692;53.714;11.372;2023-02-01T07:40:18;2.05;;;0.75;;
61785;SDS011;47692;53.714;11.372;2023-02-01T07:42:47;3.10;;;0.70;;
61785;SDS011;47692;53.714;11.372;2023-02-01T07:45:13;6.32;;;1.10;;
61785;SDS011;47692;53.714;11.372;2023-02-01T07:47:40;3.95;;;0.80;;
61785;SDS011;47692;53.714;11.372;2023-02-01T07:50:05;2.08;;;0.75;;
61785;SDS011;47692;53.714;11.372;2023-02-01T07:52:31;2.70;;;1.00;;
61785;SDS011;47692;53.714;11.372;2023-02-01T07:54:56;7.20;;;1.15;;
61785;SDS011;47692;53.714;11.372;2023-02-01T07:57:21;5.25;;;1.17;;
61785;SDS011;47692;53.714;11.372;2023-02-01T07:59:46;6.30;;;1.00;;
61785;SDS011;47692;53.714;11.372;2023-02-01T08:02:31;6.82;;;1.05;;
61785;SDS011;47692;53.714;11.372;2023-02-01T08:04:56;6.13;;;1.02;;
61785;SDS011;47692;53.714;11.372;2023-02-01T08:07:21;9.55;;;1.00;;
61785;SDS011;47692;53.714;11.372;2023-02-01T08:09:47;7.65;;;1.20;;
61785;SDS011;47692;53.714;11.372;2023-02-01T08:12:12;5.13;;;1.20;;
61785;SDS011;47692;53.714;11.372;2023-02-01T08:14:37;7.18;;;0.98;;
61785;SDS011;47692;53.714;11.372;2023-02-01T08:17:03;3.95;;;1.20;;
61785;SDS011;47692;53.714;11.372;2023-02-01T08:19:28;6.88;;;1.20;;
61785;SDS011;47692;53.714;11.372;2023-02-01T08:21:54;9.98;;;1.35;;
61785;SDS011;47692;53.714;11.372;2023-02-01T08:24:19;3.80;;;1.00;;
61785;SDS011;47692;53.714;11.372;2023-02-01T08:26:44;7.70;;;2.08;;
61785;SDS011;47692;53.714;11.372;2023-02-01T08:29:10;7.97;;;1.85;;
61785;SDS011;47692;53.714;11.372;2023-02-01T08:31:37;6.65;;;1.20;;
61785;SDS011;47692;53.714;11.372;2023-02-01T08:34:05;10.43;;;2.08;;
61785;SDS011;47692;53.714;11.372;2023-02-01T08:36:33;5.50;;;1.40;;
61785;SDS011;47692;53.714;11.372;2023-02-01T08:38:59;4.90;;;1.42;;
61785;SDS011;47692;53.714;11.372;2023-02-01T08:41:26;5.75;;;1.60;;
61785;SDS011;47692;53.714;11.372;2023-02-01T08:43:54;13.82;;;2.15;;
61785;SDS011;47692;53.714;11.372;2023-02-01T08:46:20;8.32;;;2.28;;
61785;SDS011;47692;53.714;11.372;2023-02-01T08:48:46;3.33;;;1.35;;
61785;SDS011;47692;53.714;11.372;2023-02-01T08:51:13;8.48;;;2.08;;
61785;SDS011;47692;53.714;11.372;2023-02-01T08:53:40;10.10;;;2.03;;
61785;SDS011;47692;53.714;11.372;2023-02-01T08:56:09;14.45;;;1.70;;
61785;SDS011;47692;53.714;11.372;2023-02-01T08:58:35;8.75;;;2.25;;
61785;SDS011;47692;53.714;11.372;2023-02-01T09:01:07;12.38;;;2.72;;
61785;SDS011;47692;53.714;11.372;2023-02-01T09:03:34;8.73;;;1.40;;
61785;SDS011;47692;53.714;11.372;2023-02-01T09:06:03;11.93;;;2.30;;
61785;SDS011;47692;53.714;11.372;2023-02-01T09:08:30;10.20;;;1.42;;
61785;SDS011;47692;53.714;11.372;2023-02-01T09:11:00;7.88;;;2.60;;
61785;SDS011;47692;53.714;11.372;2023-02-01T09:13:26;10.85;;;1.95;;
61785;SDS011;47692;53.714;11.372;2023-02-01T09:15:52;11.68;;;1.83;;
61785;SDS011;47692;53.714;11.372;2023-02-01T09:18:18;11.13;;;1.98;;
61785;SDS011;47692;53.714;11.372;2023-02-01T09:20:43;12.20;;;1.60;;
61785;SDS011;47692;53.714;11.372;2023-02-01T09:23:08;7.57;;;1.45;;
61785;SDS011;47692;53.714;11.372;2023-02-01T09:25:34;15.45;;;2.58;;
61785;SDS011;47692;53.714;11.372;2023-02-01T09:28:02;15.52;;;2.00;;
61785;SDS011;47692;53.714;11.372;2023-02-01T09:30:30;15.32;;;2.25;;
61785;SDS011;47692;53.714;11.372;2023-02-01T09:32:59;8.40;;;1.63;;
61785;SDS011;47692;53.714;11.372;2023-02-01T09:35:24;8.18;;;1.38;;
61785;SDS011;47692;53.714;11.372;2023-02-01T09:37:51;5.75;;;1.58;;
61785;SDS011;47692;53.714;11.372;2023-02-01T09:40:18;8.80;;;1.20;;
61785;SDS011;47692;53.714;11.372;2023-02-01T09:45:40;3.85;;;1.10;;
61785;SDS011;47692;53.714;11.372;2023-02-01T09:48:20;8.95;;;1.20;;
61785;SDS011;47692;53.714;11.372;2023-02-01T09:50:50;14.18;;;2.75;;
61785;SDS011;47692;53.714;11.372;2023-02-01T09:53:24;19.50;;;3.08;;
61785;SDS011;47692;53.714;11.372;2023-02-01T09:56:18;11.23;;;1.95;;
61785;SDS011;47692;53.714;11.372;2023-02-01T09:58:55;21.55;;;2.35;;
61785;SDS011;47692;53.714;11.372;2023-02-01T10:01:39;11.52;;;2.50;;
61785;SDS011;47692;53.714;11.372;2023-02-01T10:04:05;19.17;;;2.47;;
61785;SDS011;47692;53.714;11.372;2023-02-01T10:11:50;13.45;;;2.10;;
61785;SDS011;47692;53.714;11.372;2023-02-01T10:17:03;12.40;;;2.60;;
61785;SDS011;47692;53.714;11.372;2023-02-01T10:22:01;7.40;;;1.40;;
61785;SDS011;47692;53.714;11.372;2023-02-01T10:27:35;10.35;;;1.38;;
61785;SDS011;47692;53.714;11.372;2023-02-01T10:32:38;11.60;;;1.60;;
61785;SDS011;47692;53.714;11.372;2023-02-01T10:35:12;7.03;;;1.20;;
61785;SDS011;47692;53.714;11.372;2023-02-01T10:37:41;8.65;;;1.65;;
61785;SDS011;47692;53.714;11.372;2023-02-01T10:42:41;10.35;;;1.52;;
61785;SDS011;47692;53.714;11.372;2023-02-01T10:45:13;8.93;;;1.30;;
61785;SDS011;47692;53.714;11.372;2023-02-01T10:47:42;8.95;;;1.88;;
61785;SDS011;47692;53.714;11.372;2023-02-01T10:53:24;10.55;;;1.73;;
61785;SDS011;47692;53.714;11.372;2023-02-01T10:55:56;12.90;;;1.63;;
61785;SDS011;47692;53.714;11.372;2023-02-01T10:58:26;10.05;;;1.60;;
61785;SDS011;47692;53.714;11.372;2023-02-01T11:00:57;14.48;;;1.88;;
61785;SDS011;47692;53.714;11.372;2023-02-01T11:06:33;8.18;;;1.58;;
61785;SDS011;47692;53.714;11.372;2023-02-01T11:09:01;10.60;;;2.00;;
61785;SDS011;47692;53.714;11.372;2023-02-01T11:16:50;9.32;;;1.98;;
61785;SDS011;47692;53.714;11.372;2023-02-01T11:19:18;11.35;;;2.15;;
61785;SDS011;47692;53.714;11.372;2023-02-01T11:21:44;19.75;;;2.08;;
61785;SDS011;47692;53.714;11.372;2023-02-01T11:24:22;17.77;;;1.83;;
61785;SDS011;47692;53.714;11.372;2023-02-01T11:26:56;15.18;;;2.10;;
61785;SDS011;47692;53.714;11.372;2023-02-01T11:29:23;8.13;;;1.77;;
61785;SDS011;47692;53.714;11.372;2023-02-01T11:31:55;15.30;;;2.15;;
61785;SDS011;47692;53.714;11.372;2023-02-01T11:34:22;17.65;;;2.42;;
61785;SDS011;47692;53.714;11.372;2023-02-01T11:36:51;18.30;;;2.35;;
61785;SDS011;47692;53.714;11.372;2023-02-01T11:39:23;18.30;;;2.40;;
61785;SDS011;47692;53.714;11.372;2023-02-01T11:41:55;9.95;;;2.05;;
61785;SDS011;47692;53.714;11.372;2023-02-01T11:44:36;12.18;;;2.97;;
61785;SDS011;47692;53.714;11.372;2023-02-01T11:47:29;16.05;;;2.15;;
61785;SDS011;47692;53.714;11.372;2023-02-01T11:50:00;23.55;;;3.38;;
61785;SDS011;47692;53.714;11.372;2023-02-01T11:57:42;19.27;;;2.92;;
61785;SDS011;47692;53.714;11.372;2023-02-01T12:00:29;10.03;;;1.40;;
61785;SDS011;47692;53.714;11.372;2023-02-01T12:03:44;7.43;;;0.88;;
61785;SDS011;47692;53.714;11.372;2023-02-01T12:08:58;4.75;;;0.82;;
61785;SDS011;47692;53.714;11.372;2023-02-01T12:11:48;4.18;;;0.70;;
61785;SDS011;47692;53.714;11.372;2023-02-01T12:14:35;3.40;;;0.43;;
61785;SDS011;47692;53.714;11.372;2023-02-01T12:20:02;2.05;;;0.77;;
61785;SDS011;47692;53.714;11.372;2023-02-01T12:40:26;4.63;;;0.80;;
61785;SDS011;47692;53.714;11.372;2023-02-01T12:43:22;2.85;;;0.80;;
61785;SDS011;47692;53.714;11.372;2023-02-01T12:46:07;2.38;;;0.80;;
61785;SDS011;47692;53.714;11.372;2023-02-01T12:51:14;6.10;;;1.00;;
61785;SDS011;47692;53.714;11.372;2023-02-01T12:53:56;10.90;;;1.95;;
61785;SDS011;47692;53.714;11.372;2023-02-01T12:56:31;5.43;;;1.15;;
61785;SDS011;47692;53.714;11.372;2023-02-01T12:59:08;6.60;;;1.65;;
61785;SDS011;47692;53.714;11.372;2023-02-01T13:02:42;7.63;;;1.27;;
61785;SDS011;47692;53.714;11.372;2023-02-01T13:07:25;5.30;;;1.60;;
61785;SDS011;47692;53.714;11.372;2023-02-01T13:10:03;8.82;;;1.23;;
61785;SDS011;47692;53.714;11.372;2023-02-01T13:15:46;6.18;;;1.02;;
61785;SDS011;47692;53.714;11.372;2023-02-01T13:18:20;5.65;;;1.25;;
61785;SDS011;47692;53.714;11.372;2023-02-01T13:23:29;17.42;;;2.17;;
61785;SDS011;47692;53.714;11.372;2023-02-01T13:25:58;7.57;;;1.20;;
61785;SDS011;47692;53.714;11.372;2023-02-01T13:42:28;3.13;;;0.50;;
61785;SDS011;47692;53.714;11.372;2023-02-01T13:49:49;1.40;;;0.52;;
61785;SDS011;47692;53.714;11.372;2023-02-01T13:52:35;3.22;;;0.65;;
61785;SDS011;47692;53.714;11.372;2023-02-01T13:55:15;3.40;;;0.60;;
61785;SDS011;47692;53.714;11.372;2023-02-01T13:58:14;3.70;;;0.70;;
61785;SDS011;47692;53.714;11.372;2023-02-01T14:00:41;5.10;;;1.08;;
61785;SDS011;47692;53.714;11.372;2023-02-01T14:03:16;1.60;;;0.45;;
61785;SDS011;47692;53.714;11.372;2023-02-01T14:08:19;3.58;;;0.85;;
61785;SDS011;47692;53.714;11.372;2023-02-01T14:11:01;5.15;;;0.68;;
61785;SDS011;47692;53.714;11.372;2023-02-01T14:13:31;2.03;;;0.60;;
61785;SDS011;47692;53.714;11.372;2023-02-01T14:24:01;1.70;;;0.40;;
61785;SDS011;47692;53.714;11.372;2023-02-01T14:26:41;0.65;;;0.38;;
61785;SDS011;47692;53.714;11.372;2023-02-01T14:37:11;0.55;;;0.30;;
61785;SDS011;47692;53.714;11.372;2023-02-01T14:42:50;1.55;;;0.63;;
61785;SDS011;47692;53.714;11.372;2023-02-01T14:47:44;4.97;;;0.40;;
61785;SDS011;47692;53.714;11.372;2023-02-01T14:53:09;2.15;;;0.50;;
61785;SDS011;47692;53.714;11.372;2023-02-01T15:00:54;5.63;;;0.60;;
61785;SDS011;47692;53.714;11.372;2023-02-01T15:09:14;2.65;;;0.95;;
61785;SDS011;47692;53.714;11.372;2023-02-01T15:12:00;2.33;;;0.60;;
61785;SDS011;47692;53.714;11.372;2023-02-01T15:14:29;9.20;;;1.10;;
61785;SDS011;47692;53.714;11.372;2023-02-01T15:17:00;4.28;;;0.88;;
61785;SDS011;47692;53.714;11.372;2023-02-01T15:19:26;4.05;;;1.30;;
61785;SDS011;47692;53.714;11.372;2023-02-01T15:21:54;6.03;;;1.58;;
61785;SDS011;47692;53.714;11.372;2023-02-01T15:24:25;3.33;;;0.82;;
61785;SDS011;47692;53.714;11.372;2023-02-01T15:26:53;6.70;;;0.88;;
61785;SDS011;47692;53.714;11.372;2023-02-01T15:29:20;3.00;;;0.63;;
61785;SDS011;47692;53.714;11.372;2023-02-01T15:31:51;7.97;;;0.95;;
61785;SDS011;47692;53.714;11.372;2023-02-01T15:34:18;4.20;;;0.50;;
61785;SDS011;47692;53.714;11.372;2023-02-01T15:36:46;4.07;;;0.80;;
61785;SDS011;47692;53.714;11.372;2023-02-01T15:41:48;4.07;;;0.70;;
61785;SDS011;47692;53.714;11.372;2023-02-01T15:44:20;4.28;;;0.98;;
61785;SDS011;47692;53.714;11.372;2023-02-01T15:46:46;2.50;;;0.75;;
61785;SDS011;47692;53.714;11.372;2023-02-01T15:49:23;4.72;;;0.75;;
61785;SDS011;47692;53.714;11.372;2023-02-01T15:51:55;8.13;;;1.00;;
61785;SDS011;47692;53.714;11.372;2023-02-01T15:54:24;6.13;;;1.02;;
61785;SDS011;47692;53.714;11.372;2023-02-01T15:56:53;5.65;;;0.82;;
61785;SDS011;47692;53.714;11.372;2023-02-01T15:59:21;11.55;;;1.25;;
61785;SDS011;47692;53.714;11.372;2023-02-01T16:01:53;7.03;;;1.40;;
61785;SDS011;47692;53.714;11.372;2023-02-01T16:06:46;8.20;;;1.23;;
61785;SDS011;47692;53.714;11.372;2023-02-01T16:09:14;7.88;;;1.13;;
61785;SDS011;47692;53.714;11.372;2023-02-01T16:11:47;6.32;;;1.73;;
61785;SDS011;47692;53.714;11.372;2023-02-01T16:14:14;11.93;;;1.80;;
61785;SDS011;47692;53.714;11.372;2023-02-01T16:16:40;8.07;;;1.10;;
61785;SDS011;47692;53.714;11.372;2023-02-01T16:19:06;9.98;;;1.30;;
61785;SDS011;47692;53.714;11.372;2023-02-01T16:21:31;6.57;;;1.23;;
61785;SDS011;47692;53.714;11.372;2023-02-01T16:23:56;9.43;;;1.48;;
61785;SDS011;47692;53.714;11.372;2023-02-01T16:26:22;13.13;;;1.40;;
61785;SDS011;47692;53.714;11.372;2023-02-01T16:28:47;10.63;;;1.48;;
61785;SDS011;47692;53.714;11.372;2023-02-01T16:31:14;11.90;;;4.55;;
61785;SDS011;47692;53.714;11.372;2023-02-01T16:33:50;20.63;;;7.43;;
61785;SDS011;47692;53.714;11.372;2023-02-01T16:36:17;15.52;;;6.03;;
61785;SDS011;47692;53.714;11.372;2023-02-01T16:38:43;16.23;;;5.70;;
61785;SDS011;47692;53.714;11.372;2023-02-01T16:41:12;18.65;;;6.05;;
61785;SDS011;47692;53.714;11.372;2023-02-01T16:43:39;16.42;;;6.30;;
61785;SDS011;47692;53.714;11.372;2023-02-01T16:46:04;23.77;;;8.00;;
61785;SDS011;47692;53.714;11.372;2023-02-01T16:48:31;26.63;;;9.88;;
61785;SDS011;47692;53.714;11.372;2023-02-01T16:51:01;14.75;;;4.38;;
61785;SDS011;47692;53.714;11.372;2023-02-01T16:53:31;12.77;;;2.88;;
61785;SDS011;47692;53.714;11.372;2023-02-01T16:55:57;14.02;;;4.78;;
61785;SDS011;47692;53.714;11.372;2023-02-01T16:58:23;10.18;;;4.28;;
61785;SDS011;47692;53.714;11.372;2023-02-01T17:00:49;13.00;;;2.33;;
61785;SDS011;47692;53.714;11.372;2023-02-01T17:03:16;12.57;;;2.45;;
61785;SDS011;47692;53.714;11.372;2023-02-01T17:05:44;15.27;;;2.78;;
61785;SDS011;47692;53.714;11.372;2023-02-01T17:08:13;13.38;;;3.30;;
61785;SDS011;47692;53.714;11.372;2023-02-01T17:10:43;14.43;;;2.30;;
61785;SDS011;47692;53.714;11.372;2023-02-01T17:13:12;10.75;;;2.20;;
61785;SDS011;47692;53.714;11.372;2023-02-01T17:15:39;14.00;;;2.15;;
61785;SDS011;47692;53.714;11.372;2023-02-01T17:18:13;6.75;;;1.77;;
61785;SDS011;47692;53.714;11.372;2023-02-01T17:20:40;15.20;;;2.15;;
61785;SDS011;47692;53.714;11.372;2023-02-01T17:23:06;18.23;;;2.47;;
61785;SDS011;47692;53.714;11.372;2023-02-01T17:25:32;6.78;;;1.90;;
61785;SDS011;47692;53.714;11.372;2023-02-01T17:27:57;14.77;;;2.05;;
61785;SDS011;47692;53.714;11.372;2023-02-01T17:30:23;20.70;;;3.35;;